Time;durP1;ratioP1;P1;durP2;ratioP2;P2;SDS_P1;SDS_P2;PMS_P1;PMS_P2;Temp;Humidity;BMP_temperature;BMP_pressure;BME280_temperature;BME280_humidity;BME280_pressure;Samples;Min_cycle;Max_cycle;Signal;HPM_P1;HPM_P2
2023/02/03 00:00:06;;;;;;;;;;;;;;;5.17;81.73;98895.25;5108502;28;19928;-59
2023/02/03 00:02:41;;;;;;;;;;;;;;;5.14;81.98;98895.75;5113137;28;19924;-59
2023/02/03 00:05:11;;;;;;;;;;;;;;;5.14;82.28;98895.75;5112980;28;20388;-59
2023/02/03 00:07:40;;;;;;;;;;;;;;;5.14;82.27;98900.31;5112309;28;19931;-58
2023/02/03 00:10:08;;;;;;;;;;;;;;;5.14;82.52;98908.41;5112928;28;19931;-59
2023/02/03 00:12:36;;;;;;;;;;;;;;;5.09;82.30;98908.34;5101269;28;19947;-58
2023/02/03 00:15:04;;;;;;;;;;;;;;;5.11;82.40;98907.00;5113232;27;20000;-59
2023/02/03 00:17:32;;;;;;;;;;;;;;;5.08;82.67;98902.13;5100117;28;19924;-58
2023/02/03 00:20:00;;;;;;;;;;;;;;;5.09;82.97;98897.56;5107007;28;20380;-58
2023/02/03 00:22:30;;;;;;;;;;;;;;;5.08;83.12;98901.31;5108528;28;19928;-57
2023/02/03 00:24:59;;;;;;;;;;;;;;;5.04;83.42;98895.63;5116927;27;19931;-59
2023/02/03 00:27:27;;;;;;;;;;;;;;;5.07;83.20;98903.22;5105160;27;19934;-58
2023/02/03 00:29:58;;;;;;;;;;;;;;;5.02;83.55;98897.75;5109876;27;19924;-58
2023/02/03 00:32:25;;;;;;;;;;;;;;;5.05;83.69;98902.63;5114915;27;19923;-58
2023/02/03 00:35:18;;;;;;;;;;;;;;;5.00;83.61;98894.50;5124185;27;19931;-59
2023/02/03 00:37:52;;;;;;;;;;;;;;;5.02;83.62;98903.16;5104073;27;19931;-59
2023/02/03 00:40:21;;;;;;;;;;;;;;;4.96;83.81;98896.06;5114822;27;19928;-59
2023/02/03 00:42:50;;;;;;;;;;;;;;;4.98;83.60;98896.63;5122855;27;20021;-59
2023/02/03 00:45:18;;;;;;;;;;;;;;;4.95;84.47;98902.50;5104406;27;19925;-59
2023/02/03 00:47:47;;;;;;;;;;;;;;;4.94;84.26;98901.69;5096816;27;19977;-58
2023/02/03 00:53:09;;;;;;;;;;;;;;;4.96;84.74;98896.06;5113421;27;20326;-59
2023/02/03 00:55:37;;;;;;;;;;;;;;;4.97;84.81;98893.13;5114289;27;19938;-59
2023/02/03 00:58:05;;;;;;;;;;;;;;;4.98;84.43;98896.63;5099648;28;19924;-59
2023/02/03 01:00:57;;;;;;;;;;;;;;;4.94;85.06;98880.16;5123410;27;19923;-58
2023/02/03 01:03:25;;;;;;;;;;;;;;;4.91;84.72;98890.63;5099824;28;20589;-59
2023/02/03 01:05:54;;;;;;;;;;;;;;;4.91;84.88;98890.63;5109523;28;19931;-58
2023/02/03 01:08:23;;;;;;;;;;;;;;;4.98;84.21;98896.63;5103912;28;19931;-58
2023/02/03 01:10:51;;;;;;;;;;;;;;;4.91;84.72;98896.00;5100686;28;19927;-60
2023/02/03 01:13:18;;;;;;;;;;;;;;;4.86;85.13;98898.63;5097752;28;20304;-59
2023/02/03 01:15:47;;;;;;;;;;;;;;;4.91;84.96;98896.00;5109473;28;19930;-59
2023/02/03 01:18:15;;;;;;;;;;;;;;;4.94;85.05;98895.50;5109304;28;19924;-59
2023/02/03 01:20:44;;;;;;;;;;;;;;;4.96;84.98;98896.88;5117217;27;19990;-58
2023/02/03 01:23:12;;;;;;;;;;;;;;;4.94;85.21;98904.38;5115790;27;19927;-59
2023/02/03 01:25:42;;;;;;;;;;;;;;;4.95;84.96;98897.13;5100515;28;20319;-58
2023/02/03 01:28:10;;;;;;;;;;;;;;;4.94;85.22;98896.31;5110335;28;19928;-59
2023/02/03 01:30:38;;;;;;;;;;;;;;;4.92;85.30;98897.63;5098922;28;19924;-59
2023/02/03 01:33:06;;;;;;;;;;;;;;;4.95;85.23;98892.56;5099235;28;19932;-59
2023/02/03 01:35:34;;;;;;;;;;;;;;;4.95;85.41;98897.13;5101637;28;19932;-59
2023/02/03 01:38:02;;;;;;;;;;;;;;;4.94;85.45;98884.72;5109288;28;19923;-59
2023/02/03 01:40:57;;;;;;;;;;;;;;;4.97;85.29;98895.00;5106557;27;20456;-59
2023/02/03 01:43:31;;;;;;;;;;;;;;;4.98;84.86;98885.84;5109357;28;20204;-59
2023/02/03 01:46:00;;;;;;;;;;;;;;;4.95;85.16;98886.34;5117029;27;20422;-59
2023/02/03 01:48:29;;;;;;;;;;;;;;;5.00;85.06;98889.09;5122889;27;20003;-58
2023/02/03 01:50:58;;;;;;;;;;;;;;;5.04;84.88;98878.66;5121839;27;19928;-59
2023/02/03 01:53:27;;;;;;;;;;;;;;;5.02;85.04;98876.22;5128033;27;20299;-59
2023/02/03 01:56:00;;;;;;;;;;;;;;;4.94;85.13;98869.38;5112177;28;19935;-58
2023/02/03 01:58:30;;;;;;;;;;;;;;;4.97;84.99;98862.69;5108152;28;19962;-57
2023/02/03 02:00:59;;;;;;;;;;;;;;;4.98;85.16;98867.00;5100668;28;19927;-58
2023/02/03 02:03:27;;;;;;;;;;;;;;;4.99;84.75;98855.97;5129536;28;19923;-58
2023/02/03 02:06:00;;;;;;;;;;;;;;;5.00;84.96;98840.63;5123855;27;19935;-59
2023/02/03 02:08:28;;;;;;;;;;;;;;;5.03;84.48;98828.56;5120960;28;19928;-58
2023/02/03 02:10:57;;;;;;;;;;;;;;;4.98;84.25;98827.41;5125644;27;19924;-59
2023/02/03 02:13:27;;;;;;;;;;;;;;;4.98;84.89;98832.00;5125421;27;19927;-58
2023/02/03 02:15:56;;;;;;;;;;;;;;;5.04;84.14;98820.22;5131817;28;19927;-59
2023/02/03 02:18:26;;;;;;;;;;;;;;;5.07;83.90;98814.34;5107549;28;19924;-59
2023/02/03 02:21:33;;;;;;;;;;;;;;;5.02;84.40;98819.66;5110429;28;19927;-59
2023/02/03 02:24:26;;;;;;;;;;;;;;;5.05;84.27;98816.44;5101460;28;19959;-59
2023/02/03 02:26:59;;;;;;;;;;;;;;;5.02;84.35;98825.03;5088993;28;20399;-59
2023/02/03 02:29:35;;;;;;;;;;;;;;;5.03;83.71;98823.97;5109401;28;19924;-57
2023/02/03 02:32:10;;;;;;;;;;;;;;;5.09;83.66;98822.97;5111973;28;19947;-58
2023/02/03 02:34:40;;;;;;;;;;;;;;;5.05;84.13;98823.72;5098025;28;20284;-59
2023/02/03 02:37:11;;;;;;;;;;;;;;;5.08;83.53;98825.91;5112187;28;19959;-59
2023/02/03 02:39:43;;;;;;;;;;;;;;;5.07;83.89;98833.19;5112574;28;19930;-59
2023/02/03 02:42:14;;;;;;;;;;;;;;;5.10;83.68;98824.59;5124120;27;19923;-58
2023/02/03 02:44:46;;;;;;;;;;;;;;;5.18;83.08;98837.63;5101053;28;19924;-59
2023/02/03 02:47:17;;;;;;;;;;;;;;;5.14;83.33;98835.66;5129145;28;19929;-59
2023/02/03 02:50:12;;;;;;;;;;;;;;;5.10;83.61;98846.13;5112596;28;19923;-59
2023/02/03 02:52:40;;;;;;;;;;;;;;;5.19;83.73;98849.19;5108997;28;19938;-59
2023/02/03 02:55:11;;;;;;;;;;;;;;;5.17;83.35;98841.38;5097215;27;19939;-59
2023/02/03 02:57:39;;;;;;;;;;;;;;;5.18;83.29;98831.41;5101373;27;19932;-58
2023/02/03 03:00:08;;;;;;;;;;;;;;;5.12;83.77;98838.63;5108212;27;20290;-59
2023/02/03 03:02:38;;;;;;;;;;;;;;;5.18;83.33;98836.81;5100084;28;19931;-59
2023/02/03 03:05:07;;;;;;;;;;;;;;;5.20;83.37;98824.69;5129640;27;20397;-60
2023/02/03 03:07:41;;;;;;;;;;;;;;;5.15;83.50;98832.72;5103986;28;19928;-57
2023/02/03 03:10:10;;;;;;;;;;;;;;;5.21;83.68;98834.38;5107660;27;20071;-59
2023/02/03 03:12:39;;;;;;;;;;;;;;;5.20;83.62;98840.03;5112068;27;19924;-59
2023/02/03 03:15:07;;;;;;;;;;;;;;;5.21;83.52;98842.47;5130885;27;19923;-59
2023/02/03 03:17:37;;;;;;;;;;;;;;;5.24;83.64;98835.78;5111380;27;19923;-59
2023/02/03 03:20:08;;;;;;;;;;;;;;;5.19;83.77;98849.19;5129411;27;19930;-59
2023/02/03 03:22:39;;;;;;;;;;;;;;;5.20;83.67;98856.22;5131000;27;19924;-59
2023/02/03 03:25:09;;;;;;;;;;;;;;;5.17;83.93;98836.00;5128696;27;19924;-59
2023/02/03 03:27:39;;;;;;;;;;;;;;;5.18;83.83;98837.63;5114303;27;20277;-59
2023/02/03 03:30:08;;;;;;;;;;;;;;;5.16;83.70;98834.34;5134403;27;19963;-58
2023/02/03 03:32:36;;;;;;;;;;;;;;;5.16;83.72;98837.03;5119361;27;19927;-59
2023/02/03 03:35:06;;;;;;;;;;;;;;;5.25;83.43;98840.09;5130891;27;19934;-59
2023/02/03 03:37:37;;;;;;;;;;;;;;;5.25;82.84;98859.75;5129828;27;19931;-59
2023/02/03 03:40:07;;;;;;;;;;;;;;;5.22;83.13;98862.97;5126736;27;20299;-58
2023/02/03 03:42:36;;;;;;;;;;;;;;;5.22;83.15;98854.09;5114404;27;20376;-59
2023/02/03 03:45:06;;;;;;;;;;;;;;;5.25;83.34;98859.75;5132020;27;20438;-59
2023/02/03 03:47:35;;;;;;;;;;;;;;;5.24;83.65;98863.53;5131269;27;20317;-60
2023/02/03 03:50:06;;;;;;;;;;;;;;;5.29;83.34;98875.44;5113015;27;20268;-59
2023/02/03 03:52:34;;;;;;;;;;;;;;;5.31;83.37;98866.03;5122901;27;19923;-58
2023/02/03 03:55:03;;;;;;;;;;;;;;;5.31;83.17;98874.09;5133227;27;19946;-59
2023/02/03 03:57:32;;;;;;;;;;;;;;;5.23;83.33;98861.09;5133395;27;19930;-59
2023/02/03 04:00:00;;;;;;;;;;;;;;;5.26;83.35;98855.19;5100003;28;20143;-59
2023/02/03 04:02:38;;;;;;;;;;;;;;;5.30;83.16;98861.72;5131890;27;19969;-59
2023/02/03 04:05:08;;;;;;;;;;;;;;;5.31;83.23;98855.25;5131781;27;19923;-59
2023/02/03 04:07:39;;;;;;;;;;;;;;;5.23;83.45;98848.44;5124019;27;19923;-59
2023/02/03 04:10:11;;;;;;;;;;;;;;;5.28;83.09;98842.28;5105035;27;19923;-59
2023/02/03 04:12:39;;;;;;;;;;;;;;;5.31;82.70;98841.78;5122578;27;19931;-59
2023/02/03 04:15:07;;;;;;;;;;;;;;;5.30;82.98;98844.72;5106790;27;19942;-59
2023/02/03 04:20:28;;;;;;;;;;;;;;;5.33;83.15;98839.66;5132893;27;20257;-58
2023/02/03 04:22:59;;;;;;;;;;;;;;;5.31;83.30;98824.78;5129406;27;19923;-58
2023/02/03 04:25:28;;;;;;;;;;;;;;;5.33;82.65;98812.72;5121961;27;19930;-59
2023/02/03 04:27:57;;;;;;;;;;;;;;;5.37;82.27;98818.38;5117507;27;20018;-58
2023/02/03 04:30:25;;;;;;;;;;;;;;;5.37;82.16;98823.78;5120374;27;19927;-59
2023/02/03 04:32:53;;;;;;;;;;;;;;;5.29;82.83;98821.56;5127828;27;19998;-57
2023/02/03 04:35:21;;;;;;;;;;;;;;;5.34;82.73;98818.91;5113342;27;19934;-59
2023/02/03 04:37:50;;;;;;;;;;;;;;;5.34;82.32;98818.91;5122920;27;19923;-58
2023/02/03 04:40:18;;;;;;;;;;;;;;;5.37;82.18;98815.69;5114564;27;19923;-59
2023/02/03 04:42:47;;;;;;;;;;;;;;;5.34;82.26;98806.25;5125913;27;19959;-59
2023/02/03 04:45:15;;;;;;;;;;;;;;;5.30;82.85;98801.63;5132584;27;19927;-58
2023/02/03 04:47:43;;;;;;;;;;;;;;;5.37;83.02;98796.81;5128789;27;20284;-59
2023/02/03 04:50:11;;;;;;;;;;;;;;;5.36;82.61;98795.19;5113672;27;19927;-59
2023/02/03 04:52:40;;;;;;;;;;;;;;;5.28;83.37;98793.81;5130846;27;19927;-59
2023/02/03 04:55:08;;;;;;;;;;;;;;;5.35;82.30;98788.19;5132950;27;19931;-59
2023/02/03 05:00:35;;;;;;;;;;;;;;;5.37;82.10;98804.91;5118596;27;19923;-56
2023/02/03 05:03:03;;;;;;;;;;;;;;;5.33;82.45;98809.22;5127367;27;19923;-58
2023/02/03 05:05:31;;;;;;;;;;;;;;;5.38;81.86;98806.53;5131295;27;19941;-58
2023/02/03 05:07:59;;;;;;;;;;;;;;;5.40;81.87;98828.66;5128566;27;19992;-59
2023/02/03 05:10:27;;;;;;;;;;;;;;;5.41;81.65;98831.09;5134618;27;19967;-59
2023/02/03 05:12:55;;;;;;;;;;;;;;;5.49;81.20;98816.38;5114278;27;19923;-58
2023/02/03 05:15:22;;;;;;;;;;;;;;;5.46;81.28;98811.47;5125535;27;19930;-59
2023/02/03 05:17:52;;;;;;;;;;;;;;;5.43;81.52;98814.66;5129540;27;20276;-58
2023/02/03 05:20:20;;;;;;;;;;;;;;;5.50;80.61;98805.31;5122241;27;19923;-59
2023/02/03 05:22:49;;;;;;;;;;;;;;;5.52;80.35;98832.00;5104161;27;20292;-57
2023/02/03 05:25:17;;;;;;;;;;;;;;;5.49;80.42;98814.47;5125378;27;19924;-59
2023/02/03 05:27:45;;;;;;;;;;;;;;;5.52;80.73;98832.00;5127477;27;20018;-59
2023/02/03 05:30:13;;;;;;;;;;;;;;;5.56;80.35;98835.81;5126347;27;20396;-59
2023/02/03 05:32:42;;;;;;;;;;;;;;;5.59;79.83;98832.59;5134797;27;19931;-59
2023/02/03 05:35:11;;;;;;;;;;;;;;;5.52;80.28;98830.13;5123942;27;19924;-58
2023/02/03 05:37:40;;;;;;;;;;;;;;;5.53;80.17;98818.25;5125486;27;20391;-59
2023/02/03 05:42:56;;;;;;;;;;;;;;;5.53;80.27;98828.22;5119765;27;19958;-59
2023/02/03 05:45:24;;;;;;;;;;;;;;;5.57;80.27;98834.75;5121709;27;20368;-58
2023/02/03 05:47:53;;;;;;;;;;;;;;;5.51;80.72;98841.16;5122588;27;19932;-58
2023/02/03 05:50:23;;;;;;;;;;;;;;;5.56;80.15;98837.72;5125285;27;19946;-59
2023/02/03 05:52:51;;;;;;;;;;;;;;;5.60;80.12;98842.34;5115467;28;19981;-60
2023/02/03 05:55:20;;;;;;;;;;;;;;;5.56;80.17;98827.72;5103691;27;19923;-59
2023/02/03 05:57:48;;;;;;;;;;;;;;;5.57;80.69;98828.53;5128135;27;20226;-59
2023/02/03 06:00:16;;;;;;;;;;;;;;;5.55;80.88;98817.22;5123542;27;19942;-58
2023/02/03 06:02:44;;;;;;;;;;;;;;;5.52;80.99;98818.53;5122938;27;19998;-58
2023/02/03 06:05:13;;;;;;;;;;;;;;;5.47;81.17;98813.09;5104673;28;19984;-58
2023/02/03 06:07:42;;;;;;;;;;;;;;;5.50;81.10;98805.31;5123423;27;19931;-58
2023/02/03 06:10:10;;;;;;;;;;;;;;;5.57;80.42;98807.78;5116973;27;20080;-59
2023/02/03 06:12:38;;;;;;;;;;;;;;;5.59;80.29;98800.25;5114598;28;19927;-59
2023/02/03 06:15:07;;;;;;;;;;;;;;;5.61;80.39;98783.84;5102714;27;19923;-58
2023/02/03 06:17:35;;;;;;;;;;;;;;;5.63;80.69;98773.59;5121763;27;19927;-58
2023/02/03 06:20:04;;;;;;;;;;;;;;;5.63;80.50;98768.22;5119444;27;19932;-59
2023/02/03 06:22:32;;;;;;;;;;;;;;;5.66;80.11;98775.78;5106949;28;19931;-59
2023/02/03 06:25:04;;;;;;;;;;;;;;;5.53;80.25;98775.13;5104532;28;19989;-59
2023/02/03 06:27:32;;;;;;;;;;;;;;;5.57;80.49;98764.66;5124823;27;19928;-59
2023/02/03 06:30:00;;;;;;;;;;;;;;;5.53;80.33;98761.66;5129887;27;19934;-59
2023/02/03 06:32:28;;;;;;;;;;;;;;;5.58;80.55;98760.09;5118858;27;20303;-59
2023/02/03 06:35:20;;;;;;;;;;;;;;;5.51;81.22;98765.69;5124181;27;19924;-59
2023/02/03 06:37:49;;;;;;;;;;;;;;;5.49;81.09;98767.84;5122074;27;20380;-58
2023/02/03 06:40:19;;;;;;;;;;;;;;;5.54;81.08;98754.41;5129200;27;20956;-59
2023/02/03 06:42:47;;;;;;;;;;;;;;;5.64;80.35;98764.44;5118760;27;19924;-59
2023/02/03 06:45:18;;;;;;;;;;;;;;;5.61;80.97;98763.09;5122533;27;19927;-59
2023/02/03 06:47:46;;;;;;;;;;;;;;;5.62;80.16;98766.59;5126220;27;20030;-59
2023/02/03 06:50:14;;;;;;;;;;;;;;;5.63;80.20;98770.91;5127618;27;20082;-59
2023/02/03 06:52:42;;;;;;;;;;;;;;;5.55;80.60;98766.81;5114528;27;19935;-58
2023/02/03 06:55:10;;;;;;;;;;;;;;;5.66;80.01;98779.31;5117083;27;19923;-59
2023/02/03 06:57:44;;;;;;;;;;;;;;;5.57;80.32;98778.16;5125975;27;19923;-59
2023/02/03 07:00:14;;;;;;;;;;;;;;;5.59;80.09;98778.69;5127346;27;19938;-59
2023/02/03 07:02:46;;;;;;;;;;;;;;;5.63;79.80;98766.31;5119714;27;19928;-59
2023/02/03 07:05:15;;;;;;;;;;;;;;;5.69;79.27;98759.91;5115993;27;19928;-59
2023/02/03 07:07:43;;;;;;;;;;;;;;;5.67;79.16;98772.03;5125056;27;19943;-60
2023/02/03 07:10:11;;;;;;;;;;;;;;;5.70;79.00;98784.97;5126583;27;19976;-58
2023/02/03 07:12:40;;;;;;;;;;;;;;;5.76;78.70;98770.47;5124537;27;20353;-59
2023/02/03 07:15:09;;;;;;;;;;;;;;;5.72;79.11;98761.28;5118769;27;19924;-58
2023/02/03 07:17:37;;;;;;;;;;;;;;;5.75;78.60;98766.13;5120073;27;19927;-59
2023/02/03 07:20:06;;;;;;;;;;;;;;;5.74;78.52;98769.91;5128994;27;19923;-58
2023/02/03 07:22:35;;;;;;;;;;;;;;;5.78;78.15;98785.31;5124568;27;19927;-58
2023/02/03 07:25:03;;;;;;;;;;;;;;;5.88;78.10;98784.59;5115015;27;19931;-57
2023/02/03 07:27:31;;;;;;;;;;;;;;;5.77;78.55;98797.19;5124259;27;19970;-57
2023/02/03 07:29:59;;;;;;;;;;;;;;;5.79;78.20;98784.25;5125603;27;20365;-59
2023/02/03 07:32:28;;;;;;;;;;;;;;;5.79;77.91;98784.25;5120404;27;19931;-58
2023/02/03 07:35:00;;;;;;;;;;;;;;;5.84;77.75;98788.06;5122043;27;19970;-58
2023/02/03 07:37:28;;;;;;;;;;;;;;;5.91;77.42;98829.97;5117823;27;19975;-56
2023/02/03 07:39:56;;;;;;;;;;;;;;;5.83;78.02;98816.91;5121270;27;19969;-58
2023/02/03 07:42:24;;;;;;;;;;;;;;;5.81;77.80;98799.38;5119898;27;19932;-59
2023/02/03 07:44:55;;;;;;;;;;;;;;;5.86;78.06;98794.00;5099406;27;19928;-59
2023/02/03 07:47:23;;;;;;;;;;;;;;;5.82;78.27;98807.19;5122972;27;20443;-59
2023/02/03 07:49:53;;;;;;;;;;;;;;;5.77;78.33;98799.06;5124689;27;19923;-58
2023/02/03 07:52:44;;;;;;;;;;;;;;;5.84;78.08;98806.94;5122796;27;20014;-61
2023/02/03 07:55:13;;;;;;;;;;;;;;;5.81;78.26;98807.47;5122275;27;20444;-58
2023/02/03 07:57:42;;;;;;;;;;;;;;;5.84;77.79;98817.72;5129150;27;19927;-58
2023/02/03 08:00:12;;;;;;;;;;;;;;;5.76;78.72;98808.22;5129859;27;19930;-59
2023/02/03 08:02:41;;;;;;;;;;;;;;;5.87;77.96;98809.13;5118459;27;19928;-58
2023/02/03 08:05:10;;;;;;;;;;;;;;;5.87;78.60;98801.84;5131097;27;19924;-54
2023/02/03 08:07:39;;;;;;;;;;;;;;;5.92;78.01;98801.09;5124789;27;20010;-55
2023/02/03 08:10:07;;;;;;;;;;;;;;;5.90;78.20;98808.59;5108500;27;20368;-55
2023/02/03 08:12:35;;;;;;;;;;;;;;;5.90;78.23;98798.59;5122130;27;19931;-55
2023/02/03 08:15:03;;;;;;;;;;;;;;;5.96;77.97;98791.41;5124538;27;19924;-54
2023/02/03 08:17:32;;;;;;;;;;;;;;;5.95;78.60;98798.69;5122593;27;19931;-54
2023/02/03 08:20:00;;;;;;;;;;;;;;;5.87;78.77;98791.06;5104091;27;19927;-55
2023/02/03 08:22:29;;;;;;;;;;;;;;;5.85;79.24;98792.38;5107349;27;19924;-55
2023/02/03 08:24:58;;;;;;;;;;;;;;;6.01;77.91;98791.44;5112741;27;19924;-55
2023/02/03 08:27:26;;;;;;;;;;;;;;;6.07;77.74;98801.19;5110822;27;19930;-54
2023/02/03 08:29:54;;;;;;;;;;;;;;;6.09;78.13;98799.06;5123950;27;19927;-54
2023/02/03 08:32:23;;;;;;;;;;;;;;;6.04;77.50;98796.31;5129765;27;20010;-55
2023/02/03 08:34:52;;;;;;;;;;;;;;;5.99;78.00;98809.78;5126568;27;19928;-54
2023/02/03 08:37:20;;;;;;;;;;;;;;;6.03;77.61;98816.28;5123397;27;19941;-55
2023/02/03 08:39:50;;;;;;;;;;;;;;;6.05;78.02;98803.34;5122554;27;19923;-55
2023/02/03 08:42:18;;;;;;;;;;;;;;;6.08;77.48;98805.53;5104684;27;19931;-55
2023/02/03 08:44:48;;;;;;;;;;;;;;;6.03;78.13;98800.91;5132425;27;19930;-62
2023/02/03 08:47:16;;;;;;;;;;;;;;;5.99;77.81;98804.38;5119797;27;19961;-55
2023/02/03 08:49:44;;;;;;;;;;;;;;;6.04;77.66;98802.53;5131872;27;19924;-55
2023/02/03 08:52:36;;;;;;;;;;;;;;;5.95;77.91;98797.88;5118527;27;19939;-55
2023/02/03 08:55:06;;;;;;;;;;;;;;;5.95;77.86;98793.28;5105051;28;19935;-54
2023/02/03 08:57:34;;;;;;;;;;;;;;;5.98;77.66;98802.75;5125969;27;20385;-55
2023/02/03 09:00:06;;;;;;;;;;;;;;;5.98;77.76;98803.56;5120215;27;20022;-55
2023/02/03 09:02:34;;;;;;;;;;;;;;;6.12;77.17;98803.09;5120434;27;19924;-55
2023/02/03 09:05:06;;;;;;;;;;;;;;;6.08;77.29;98807.41;5117692;27;20026;-54
2023/02/03 09:07:35;;;;;;;;;;;;;;;6.13;77.14;98805.56;5125329;27;19958;-55
2023/02/03 09:10:03;;;;;;;;;;;;;;;6.16;76.68;98788.84;5118143;27;20391;-54
2023/02/03 09:12:32;;;;;;;;;;;;;;;6.08;77.10;98786.63;5122603;27;20016;-55
2023/02/03 09:15:01;;;;;;;;;;;;;;;6.03;77.59;98800.91;5119587;27;20294;-55
2023/02/03 09:17:33;;;;;;;;;;;;;;;6.14;76.61;98784.78;5120032;27;20450;-55
2023/02/03 09:20:01;;;;;;;;;;;;;;;6.17;76.15;98790.44;5124562;27;19930;-55
2023/02/03 09:22:32;;;;;;;;;;;;;;;6.10;76.46;98789.88;5102389;27;19947;-55
2023/02/03 09:25:00;;;;;;;;;;;;;;;6.15;76.69;98792.59;5120844;27;19927;-55
2023/02/03 09:27:28;;;;;;;;;;;;;;;6.16;76.18;98785.31;5119192;27;19924;-54
2023/02/03 09:29:58;;;;;;;;;;;;;;;6.22;75.75;98792.38;5111396;27;20380;-56
2023/02/03 09:32:26;;;;;;;;;;;;;;;6.19;76.05;98782.13;5118802;27;19947;-55
2023/02/03 09:34:54;;;;;;;;;;;;;;;6.17;75.53;98786.94;5121073;27;19939;-55
2023/02/03 09:37:23;;;;;;;;;;;;;;;6.29;75.45;98768.69;5116871;27;19938;-55
2023/02/03 09:39:52;;;;;;;;;;;;;;;6.24;75.23;98764.06;5123931;27;19931;-55
2023/02/03 09:42:28;;;;;;;;;;;;;;;6.26;75.67;98756.50;5123143;27;19950;-55
2023/02/03 09:45:03;;;;;;;;;;;;;;;6.32;75.12;98762.75;5122558;27;20286;-55
2023/02/03 09:47:32;;;;;;;;;;;;;;;6.32;74.54;98767.31;5120290;27;19930;-55
2023/02/03 09:50:26;;;;;;;;;;;;;;;6.29;75.27;98760.59;5123798;27;19954;-55
2023/02/03 09:52:55;;;;;;;;;;;;;;;6.40;75.12;98762.25;5116183;28;19931;-55
2023/02/03 09:55:28;;;;;;;;;;;;;;;6.36;75.21;98763.03;5115180;27;19927;-55
2023/02/03 09:57:59;;;;;;;;;;;;;;;6.38;75.36;98758.19;5122682;27;19984;-55
2023/02/03 10:03:23;;;;;;;;;;;;;;;6.38;74.96;98752.78;5120328;27;19927;-55
2023/02/03 10:05:56;;;;;;;;;;;;;;;6.38;74.62;98763.56;5141684;27;19923;-55
2023/02/03 10:11:23;;;;;;;;;;;;;;;6.37;74.84;98751.97;5127753;27;20307;-55
2023/02/03 10:13:53;;;;;;;;;;;;;;;6.43;74.33;98755.50;5130688;27;19969;-54
2023/02/03 10:16:42;;;;;;;;;;;;;;;6.39;74.59;98755.25;5127251;27;19938;-55
2023/02/03 10:19:13;;;;;;;;;;;;;;;6.50;74.19;98750.69;5123552;27;19930;-54
2023/02/03 10:21:41;;;;;;;;;;;;;;;6.41;74.06;98739.59;5121238;27;20368;-55
2023/02/03 10:24:10;;;;;;;;;;;;;;;6.50;74.17;98742.59;5121536;27;19947;-55
2023/02/03 10:26:38;;;;;;;;;;;;;;;6.53;73.77;98723.16;5113619;27;19931;-55
2023/02/03 10:29:08;;;;;;;;;;;;;;;6.44;74.12;98730.94;5121951;27;19924;-55
2023/02/03 10:31:37;;;;;;;;;;;;;;;6.47;74.28;98718.81;5119159;27;19924;-55
2023/02/03 10:37:03;;;;;;;;;;;;;;;6.51;74.38;98714.53;5125911;27;19928;-55
2023/02/03 10:39:35;;;;;;;;;;;;;;;6.53;73.88;98723.16;5130211;27;20050;-55
2023/02/03 10:42:05;;;;;;;;;;;;;;;6.53;74.28;98717.75;5124024;27;19963;-55
2023/02/03 10:44:35;;;;;;;;;;;;;;;6.51;73.90;98711.81;5099642;27;19924;-55
2023/02/03 10:47:28;;;;;;;;;;;;;;;6.48;74.33;98694.25;5123486;27;19988;-55
2023/02/03 10:52:50;;;;;;;;;;;;;;;6.48;74.92;98701.53;5118104;27;19930;-55
2023/02/03 10:55:29;;;;;;;;;;;;;;;6.48;74.45;98704.25;5127887;27;19931;-55
2023/02/03 10:57:57;;;;;;;;;;;;;;;6.58;73.64;98698.88;5128738;27;20004;-55
2023/02/03 11:00:28;;;;;;;;;;;;;;;6.51;74.05;98701.03;5110108;27;19927;-55
2023/02/03 11:03:21;;;;;;;;;;;;;;;6.55;74.08;98694.84;5118537;27;19923;-55
2023/02/03 11:05:52;;;;;;;;;;;;;;;6.53;73.86;98691.56;5124472;27;19931;-55
2023/02/03 11:08:24;;;;;;;;;;;;;;;6.54;73.92;98692.38;5128189;27;19928;-55
2023/02/03 11:10:52;;;;;;;;;;;;;;;6.58;74.13;98696.16;5115683;27;20300;-55
2023/02/03 11:13:21;;;;;;;;;;;;;;;6.56;73.67;98674.03;5121373;27;20383;-55
2023/02/03 11:15:53;;;;;;;;;;;;;;;6.68;73.29;98658.41;5121575;27;19950;-54
2023/02/03 11:21:24;;;;;;;;;;;;;;;6.68;73.62;98630.59;5120496;27;19931;-56
2023/02/03 11:24:00;;;;;;;;;;;;;;;6.69;72.95;98624.91;5113926;27;20381;-55
2023/02/03 11:26:29;;;;;;;;;;;;;;;6.68;72.65;98623.28;5115270;27;19928;-54
2023/02/03 11:28:59;;;;;;;;;;;;;;;6.69;72.17;98626.81;5120508;27;19934;-55
2023/02/03 11:31:28;;;;;;;;;;;;;;;6.68;72.49;98623.28;5111350;27;19927;-55
2023/02/03 11:33:58;;;;;;;;;;;;;;;6.76;72.67;98609.25;5129207;27;19931;-55
2023/02/03 11:36:30;;;;;;;;;;;;;;;6.83;72.03;98609.81;5108102;27;19928;-55
2023/02/03 11:39:10;;;;;;;;;;;;;;;6.85;72.04;98608.72;5122839;27;20376;-54
2023/02/03 11:41:39;;;;;;;;;;;;;;;6.85;72.14;98614.13;5122137;27;19924;-55
2023/02/03 11:44:12;;;;;;;;;;;;;;;6.78;71.83;98612.50;5129162;27;20279;-55
2023/02/03 11:46:40;;;;;;;;;;;;;;;6.86;71.45;98607.63;5120451;27;19930;-55
2023/02/03 11:49:11;;;;;;;;;;;;;;;6.88;71.71;98600.09;5108448;27;19923;-55
2023/02/03 11:51:40;;;;;;;;;;;;;;;6.86;71.44;98613.03;5128553;27;19931;-55
2023/02/03 11:54:19;;;;;;;;;;;;;;;6.98;71.06;98617.13;5102617;27;19959;-55
2023/02/03 11:57:08;;;;;;;;;;;;;;;6.89;71.07;98602.53;5121638;27;19923;-55
2023/02/03 11:59:40;;;;;;;;;;;;;;;6.89;71.44;98593.59;5093833;27;19966;-55
2023/02/03 12:02:16;;;;;;;;;;;;;;;6.91;71.72;98589.53;5115200;27;19923;-55
2023/02/03 12:04:53;;;;;;;;;;;;;;;7.01;71.14;98592.25;5127952;27;20741;-55
2023/02/03 12:07:38;;;;;;;;;;;;;;;6.88;71.61;98586.59;5118039;27;19931;-55
2023/02/03 12:10:09;;;;;;;;;;;;;;;6.93;71.33;98597.41;5124924;27;20044;-55
2023/02/03 12:12:41;;;;;;;;;;;;;;;6.90;71.74;98581.72;5120712;27;19946;-54
2023/02/03 12:15:17;;;;;;;;;;;;;;;6.95;71.61;98597.91;5119480;27;19928;-55
2023/02/03 12:17:49;;;;;;;;;;;;;;;6.87;71.58;98595.75;5121045;27;20399;-55
2023/02/03 12:20:26;;;;;;;;;;;;;;;6.79;71.94;98611.41;5123002;27;19930;-55
2023/02/03 12:22:57;;;;;;;;;;;;;;;6.74;72.44;98589.81;5124532;27;19972;-55
2023/02/03 12:25:29;;;;;;;;;;;;;;;6.77;72.45;98583.88;5104489;28;19923;-55
2023/02/03 12:28:01;;;;;;;;;;;;;;;6.79;72.39;98591.72;5117247;27;20011;-55
2023/02/03 12:30:30;;;;;;;;;;;;;;;6.81;72.19;98576.03;5121415;27;20392;-55
2023/02/03 12:32:59;;;;;;;;;;;;;;;6.76;72.75;98576.84;5120882;27;20314;-55
2023/02/03 12:35:30;;;;;;;;;;;;;;;6.81;71.90;98579.53;5125863;27;19930;-55
2023/02/03 12:38:03;;;;;;;;;;;;;;;6.75;72.47;98577.94;5123433;27;19923;-55
2023/02/03 12:40:36;;;;;;;;;;;;;;;6.76;71.95;98566.03;5118901;27;19924;-55
2023/02/03 12:43:20;;;;;;;;;;;;;;;6.73;72.16;98572.00;5122905;27;19930;-55
2023/02/03 12:46:14;;;;;;;;;;;;;;;6.68;72.26;98563.91;5116339;27;20345;-55
2023/02/03 12:48:47;;;;;;;;;;;;;;;6.67;72.64;98546.06;5126559;27;19932;-55
2023/02/03 12:51:16;;;;;;;;;;;;;;;6.64;72.73;98554.69;5123295;27;19970;-55
2023/02/03 12:53:46;;;;;;;;;;;;;;;6.65;72.79;98550.91;5123502;27;19924;-55
2023/02/03 12:56:18;;;;;;;;;;;;;;;6.62;73.28;98543.38;5122263;27;19928;-55
2023/02/03 12:58:47;;;;;;;;;;;;;;;6.60;73.79;98540.13;5127782;27;19923;-55
2023/02/03 13:01:16;;;;;;;;;;;;;;;6.56;74.38;98541.75;5127346;27;20014;-57
2023/02/03 13:03:46;;;;;;;;;;;;;;;6.56;74.34;98547.16;5122198;27;19924;-56
2023/02/03 13:06:16;;;;;;;;;;;;;;;6.59;74.47;98556.59;5120307;27;19952;-55
2023/02/03 13:08:47;;;;;;;;;;;;;;;6.52;74.60;98538.78;5120399;27;19931;-55
2023/02/03 13:11:24;;;;;;;;;;;;;;;6.50;74.91;98559.03;5120578;27;19966;-55
2023/02/03 13:13:53;;;;;;;;;;;;;;;6.52;75.07;98568.47;5114142;27;19927;-55
2023/02/03 13:16:23;;;;;;;;;;;;;;;6.50;74.99;98527.44;5120413;27;20287;-56
2023/02/03 13:18:52;;;;;;;;;;;;;;;6.44;75.83;98531.19;5122302;27;19923;-55
2023/02/03 13:21:22;;;;;;;;;;;;;;;6.53;74.95;98529.59;5126097;27;19953;-55
2023/02/03 13:23:51;;;;;;;;;;;;;;;6.47;75.24;98530.69;5119723;27;19924;-55
2023/02/03 13:26:35;;;;;;;;;;;;;;;6.49;75.27;98535.78;5089273;27;19924;-56
2023/02/03 13:29:08;;;;;;;;;;;;;;;6.52;75.38;98527.97;5122165;27;20310;-55
2023/02/03 13:31:40;;;;;;;;;;;;;;;6.56;75.26;98520.16;5129908;27;20354;-55
2023/02/03 13:34:21;;;;;;;;;;;;;;;6.59;75.04;98524.19;5119541;27;19927;-55
2023/02/03 13:37:04;;;;;;;;;;;;;;;6.54;75.08;98492.59;5119992;27;19931;-55
2023/02/03 13:39:37;;;;;;;;;;;;;;;6.58;75.24;98485.59;5121235;27;19924;-55
2023/02/03 13:42:11;;;;;;;;;;;;;;;6.52;75.55;98498.28;5121559;27;19950;-55